Main page
METAR-TAF:

METAR-TAF

Airports :

Nan Nakhon Airport

Nan, Thailand

latitude: 18-46N, longitude: 100-46E, elevation: 200 m

Current weather observation

The report was made 44 minutes ago, at 09:00 UTC
Wind 3 kt from the East/Northeast, varying between North and East/Southeast
Temperature 32°C
Humidity 34%
Pressure 1011 hPa
Visibility 10 km or more
no clouds below 1500 m and no cumulonimbus

METAR: VTCN 240900Z 06003KT 010V120 CAVOK 32/14 Q1011 NOSIG

Time: 16:44 (09:44 UTC)

Forecast

The report was made 4 hours and 44 minutes ago, at 05:00 UTC
Forecast valid from 24 at 06 UTC to 25 at 06 UTC
Wind 5 kt from the South/Southeast
Visibility: 8000 m

TAF: VTCN 240500Z 2406/2506 16005KT 8000 NSC

Weather observations and forecasts of more than 4000 airports (METAR and TAF reports).

The available stations are represented by yellow and red dots on the map.

Hover mouse over dot to see the name of the station.

Then click to see weather observations and forecasts.

To change the map : click on the green buttons with a black cross to zoom in, on the green button with a dash to zoom out, or on the green arrows for adjacent maps.


METAR-TAF: